Terminal Aerodrome Forecast
Issued by NWS El Paso, TX

Home | Current Version | Previous Version | Text Only | Print | Product List | Glossary On
Versions: 1 2 3 4 5 6 7 8 9 10 11 12 13 14 15 16
116
FTUS44 KEPZ 290522
TAFELP
TAF
KELP 290522Z 2906/3006 27020G30KT P6SM VCSH BKN060 BKN120
      TEMPO 2908/2912 27025G35KT
     FM291500 29020G30KT P6SM BKN050 BKN120
     FM291900 32015G25KT P6SM SCT050 SCT120
     FM300300 09007KT P6SM FEW050 SCT120=

USA.gov is the U.S. government's official web portal to all federal, state and local government web resources and services.